createdAt,value
2022-08-25T00:00:53.641Z,22.20
2022-08-25T00:04:54.875Z,22.20
2022-08-25T00:08:58.989Z,22.20
2022-08-25T00:13:01.352Z,22.30
2022-08-25T00:17:04.147Z,22.40
2022-08-25T00:21:06.022Z,22.50
2022-08-25T00:25:09.169Z,22.30
2022-08-25T00:29:10.888Z,22.20
2022-08-25T00:33:12.209Z,22.20
2022-08-25T00:37:15.157Z,22.20
2022-08-25T00:41:20.285Z,22.20
2022-08-25T00:45:22.614Z,22.20
2022-08-25T00:49:27.550Z,22.20
2022-08-25T00:53:30.384Z,22.40
2022-08-25T00:57:47.679Z,22.40
2022-08-25T01:01:49.946Z,22.40
2022-08-25T01:05:52.942Z,22.50
2022-08-25T01:09:54.949Z,22.60
2022-08-25T01:13:57.014Z,22.50
2022-08-25T01:18:02.660Z,22.50
2022-08-25T01:22:01.560Z,22.50
2022-08-25T01:26:09.651Z,22.50
2022-08-25T01:30:11.105Z,22.40
2022-08-25T01:34:15.022Z,22.40
2022-08-25T01:38:16.579Z,22.30
2022-08-25T01:42:24.566Z,22.30
2022-08-25T01:46:26.400Z,22.20
2022-08-25T01:50:28.023Z,22.20
2022-08-25T01:54:29.162Z,22.20
2022-08-25T01:58:33.594Z,22.10
2022-08-25T02:02:34.752Z,22.00
2022-08-25T02:06:38.333Z,22.10
2022-08-25T02:10:41.556Z,22.00
2022-08-25T02:14:42.878Z,22.00
2022-08-25T02:18:45.644Z,22.00
2022-08-25T02:22:56.958Z,22.00
2022-08-25T02:26:50.467Z,22.00
2022-08-25T02:30:52.436Z,22.00
2022-08-25T02:34:55.402Z,22.00
2022-08-25T02:38:57.509Z,22.00
2022-08-25T02:42:58.622Z,21.80
2022-08-25T02:46:59.853Z,21.70
2022-08-25T02:51:01.613Z,21.60
2022-08-25T02:55:05.632Z,21.60
2022-08-25T02:59:06.758Z,21.50
2022-08-25T03:03:07.979Z,21.60
2022-08-25T03:07:11.431Z,21.60
2022-08-25T03:11:13.942Z,21.50
2022-08-25T03:15:16.616Z,21.40
2022-08-25T03:19:18.342Z,21.40
2022-08-25T03:23:19.862Z,21.40
2022-08-25T03:27:20.982Z,21.40
2022-08-25T03:31:23.175Z,21.40
2022-08-25T03:35:24.502Z,21.50
2022-08-25T03:39:26.831Z,21.50
2022-08-25T03:43:28.048Z,21.60
2022-08-25T03:47:30.497Z,21.70
2022-08-25T03:51:37.615Z,21.70
2022-08-25T03:55:40.247Z,21.80
2022-08-25T03:59:41.482Z,21.70
2022-08-25T04:03:42.986Z,21.70
2022-08-25T04:07:44.176Z,21.60
2022-08-25T04:11:45.770Z,21.50
2022-08-25T04:15:47.004Z,21.50
2022-08-25T04:19:48.113Z,21.50
2022-08-25T04:23:49.935Z,21.50
2022-08-25T04:27:51.045Z,21.50
2022-08-25T04:31:54.373Z,21.50
2022-08-25T04:35:55.799Z,21.50
2022-08-25T04:39:56.937Z,21.50
2022-08-25T04:44:00.027Z,21.50
2022-08-25T04:48:01.254Z,21.40
2022-08-25T04:52:02.738Z,21.30
2022-08-25T04:56:07.960Z,21.50
2022-08-25T05:00:10.094Z,22.00
2022-08-25T05:04:14.702Z,22.40
2022-08-25T05:08:17.078Z,22.80
2022-08-25T05:12:19.512Z,22.90
2022-08-25T05:16:22.681Z,22.70
2022-08-25T05:20:24.336Z,22.50
2022-08-25T05:24:27.267Z,22.70
2022-08-25T05:28:28.379Z,22.70
2022-08-25T05:32:29.500Z,22.70
2022-08-25T05:36:30.743Z,22.60
2022-08-25T05:40:32.213Z,22.40
2022-08-25T05:44:33.715Z,22.30
2022-08-25T05:48:35.677Z,22.10
2022-08-25T05:52:36.948Z,21.80
2022-08-25T05:56:39.668Z,21.50
2022-08-25T06:00:40.948Z,21.60
2022-08-25T06:04:42.331Z,21.50
2022-08-25T06:08:44.443Z,21.80
2022-08-25T06:12:46.823Z,22.10
2022-08-25T06:16:50.152Z,22.10
2022-08-25T06:20:51.462Z,22.00
2022-08-25T06:24:52.584Z,21.90
2022-08-25T06:28:53.906Z,22.10
2022-08-25T06:32:55.223Z,22.20
2022-08-25T06:36:56.339Z,22.30
2022-08-25T06:40:57.453Z,22.50
2022-08-25T06:44:58.678Z,22.50
2022-08-25T06:49:00.313Z,22.50
2022-08-25T06:53:01.537Z,22.70
2022-08-25T06:57:03.917Z,23.10
2022-08-25T07:01:22.841Z,23.60
2022-08-25T07:05:40.854Z,23.80
2022-08-25T07:09:29.675Z,23.90
2022-08-25T07:13:31.397Z,24.20
2022-08-25T07:17:33.528Z,24.20
2022-08-25T07:21:37.051Z,24.20
2022-08-25T07:25:38.263Z,24.70
2022-08-25T07:29:42.738Z,24.50
2022-08-25T07:33:44.943Z,24.60
2022-08-25T07:37:50.187Z,24.70
2022-08-25T07:41:52.649Z,24.80
2022-08-25T07:45:54.282Z,25.20
2022-08-25T07:49:55.398Z,25.40
2022-08-25T07:53:56.618Z,25.60
2022-08-25T07:57:59.245Z,25.80
2022-08-25T08:02:00.517Z,25.50
2022-08-25T08:06:08.002Z,25.80
2022-08-25T08:10:42.408Z,26.00
2022-08-25T08:14:15.805Z,26.00
2022-08-25T08:18:18.949Z,26.50
2022-08-25T08:22:20.758Z,26.80
2022-08-25T08:26:36.281Z,26.50
2022-08-25T08:30:26.987Z,26.60
2022-08-25T08:34:29.353Z,26.90
2022-08-25T08:38:30.752Z,27.20
2022-08-25T08:42:39.034Z,27.30
2022-08-25T08:46:47.188Z,27.60
2022-08-25T08:50:58.042Z,27.90
2022-08-25T08:55:02.979Z,28.60
2022-08-25T08:59:13.489Z,28.90
2022-08-25T09:03:18.571Z,29.00
2022-08-25T09:07:27.156Z,29.50
2022-08-25T09:11:41.343Z,29.70
2022-08-25T09:16:10.944Z,29.80
2022-08-25T09:20:48.258Z,30.10
2022-08-25T09:24:59.125Z,30.10
2022-08-25T09:29:17.224Z,30.30
2022-08-25T09:33:21.766Z,30.70
2022-08-25T09:37:24.102Z,30.50
2022-08-25T09:41:48.717Z,31.10
2022-08-25T09:46:01.703Z,31.60
2022-08-25T09:50:05.584Z,31.10
2022-08-25T09:54:20.129Z,30.60
2022-08-25T09:58:23.691Z,30.80
2022-08-25T10:02:27.969Z,31.10
2022-08-25T10:06:44.818Z,30.90
2022-08-25T10:10:50.319Z,31.00
2022-08-25T10:14:51.805Z,31.80
2022-08-25T10:19:10.270Z,32.20
2022-08-25T10:23:14.439Z,32.40
2022-08-25T10:27:29.092Z,32.40
2022-08-25T10:31:37.502Z,31.60
2022-08-25T10:35:53.213Z,31.90
2022-08-25T10:40:03.999Z,32.60
2022-08-25T10:45:03.353Z,33.10
2022-08-25T10:49:15.728Z,33.50
2022-08-25T10:53:26.853Z,32.70
2022-08-25T10:57:41.022Z,32.20
2022-08-25T11:01:46.130Z,31.60
2022-08-25T11:05:54.649Z,32.60
2022-08-25T11:09:59.606Z,33.60
2022-08-25T11:14:09.255Z,34.10
2022-08-25T11:18:14.412Z,33.60
2022-08-25T11:22:34.734Z,32.90
2022-08-25T11:26:38.958Z,33.40
2022-08-25T11:30:43.739Z,33.80
2022-08-25T11:34:44.898Z,33.30
2022-08-25T11:39:04.746Z,33.90
2022-08-25T11:43:35.840Z,33.80
2022-08-25T11:47:46.008Z,33.50
2022-08-25T11:51:48.982Z,33.30
2022-08-25T11:55:53.632Z,34.10
2022-08-25T12:00:14.138Z,34.30
2022-08-25T12:04:34.151Z,34.30
2022-08-25T12:08:53.354Z,33.70
2022-08-25T12:13:10.286Z,34.30
2022-08-25T12:17:23.762Z,35.20
2022-08-25T12:21:31.148Z,35.40
2022-08-25T12:25:36.063Z,35.40
2022-08-25T12:29:44.541Z,35.10
2022-08-25T12:34:07.487Z,34.90
2022-08-25T12:38:13.122Z,35.30
2022-08-25T12:42:35.273Z,35.30
2022-08-25T12:46:38.701Z,34.50
2022-08-25T12:50:43.935Z,35.10
2022-08-25T12:54:48.916Z,34.50
2022-08-25T12:59:11.891Z,34.70
2022-08-25T13:03:32.489Z,34.30
2022-08-25T13:07:52.501Z,34.30
2022-08-25T13:12:19.312Z,34.20
2022-08-25T13:16:29.294Z,34.50
2022-08-25T13:20:30.051Z,34.70
2022-08-25T13:24:40.200Z,34.40
2022-08-25T13:28:50.500Z,34.30
2022-08-25T13:32:46.929Z,34.30
2022-08-25T13:37:07.389Z,34.70
2022-08-25T13:41:09.830Z,34.70
2022-08-25T13:45:15.172Z,34.60
2022-08-25T13:49:26.082Z,34.70
2022-08-25T13:53:30.469Z,34.40
2022-08-25T13:57:33.855Z,33.70
2022-08-25T14:01:48.559Z,33.50
2022-08-25T14:05:52.960Z,33.50
2022-08-25T14:10:00.279Z,33.70
2022-08-25T14:14:12.022Z,33.80
2022-08-25T14:18:20.429Z,33.50
2022-08-25T14:22:23.877Z,34.10
2022-08-25T14:26:27.494Z,34.50
2022-08-25T14:30:30.166Z,34.40
2022-08-25T14:34:36.779Z,34.40
2022-08-25T14:38:38.510Z,34.20
2022-08-25T14:42:40.283Z,34.50
2022-08-25T14:46:50.148Z,34.40
2022-08-25T14:50:53.963Z,34.50
2022-08-25T14:54:58.942Z,33.60
2022-08-25T14:59:00.968Z,33.30
2022-08-25T15:03:03.185Z,33.70
2022-08-25T15:07:06.649Z,33.70
2022-08-25T15:11:08.931Z,33.60
2022-08-25T15:15:10.636Z,33.80
2022-08-25T15:19:16.788Z,33.70
2022-08-25T15:23:18.865Z,33.50
2022-08-25T15:27:20.739Z,33.30
2022-08-25T15:31:22.953Z,33.30
2022-08-25T15:35:24.162Z,32.90
2022-08-25T15:39:27.351Z,32.90
2022-08-25T15:43:28.723Z,32.70
2022-08-25T15:47:31.695Z,32.70
2022-08-25T15:51:32.976Z,32.80
2022-08-25T15:55:37.844Z,32.70
2022-08-25T15:59:40.971Z,32.80
2022-08-25T16:03:42.728Z,32.70
2022-08-25T16:07:45.515Z,32.80
2022-08-25T16:11:57.667Z,32.80
2022-08-25T16:15:53.116Z,32.40
2022-08-25T16:19:53.175Z,32.30
2022-08-25T16:23:56.921Z,31.90
2022-08-25T16:28:00.678Z,31.90
2022-08-25T16:32:04.309Z,32.00
2022-08-25T16:36:08.841Z,32.00
2022-08-25T16:40:13.111Z,32.00
2022-08-25T16:44:16.476Z,31.70
2022-08-25T16:48:17.951Z,31.80
2022-08-25T16:52:37.536Z,32.10
2022-08-25T16:56:40.737Z,31.90
2022-08-25T17:00:44.798Z,31.90
2022-08-25T17:04:45.098Z,32.00
2022-08-25T17:08:49.014Z,31.80
2022-08-25T17:12:50.330Z,31.60
2022-08-25T17:16:53.852Z,31.60
2022-08-25T17:21:07.387Z,31.70
2022-08-25T17:25:08.910Z,31.80
2022-08-25T17:29:10.998Z,31.70
2022-08-25T17:33:13.556Z,31.70
2022-08-25T17:37:14.885Z,31.90
2022-08-25T17:41:17.418Z,31.70
2022-08-25T17:45:18.761Z,31.80
2022-08-25T17:49:19.959Z,31.80
2022-08-25T17:53:21.463Z,31.80
2022-08-25T17:57:24.197Z,31.70
2022-08-25T18:01:28.926Z,31.50
2022-08-25T18:05:31.936Z,31.40
2022-08-25T18:09:34.486Z,31.30
2022-08-25T18:13:35.713Z,31.20
2022-08-25T18:17:37.823Z,31.10
2022-08-25T18:21:41.143Z,30.90
2022-08-25T18:25:44.794Z,30.80
2022-08-25T18:29:46.215Z,30.70
2022-08-25T18:33:51.029Z,30.30
2022-08-25T18:38:10.181Z,30.20
2022-08-25T18:42:11.855Z,30.10
2022-08-25T18:46:13.226Z,30.10
2022-08-25T18:50:14.713Z,30.10
2022-08-25T18:54:23.321Z,30.00
2022-08-25T18:58:22.333Z,30.00
2022-08-25T19:02:24.969Z,29.90
2022-08-25T19:06:26.710Z,29.80
2022-08-25T19:10:29.456Z,29.60
2022-08-25T19:14:30.970Z,29.40
2022-08-25T19:18:32.543Z,29.30
2022-08-25T19:22:41.657Z,29.30
2022-08-25T19:26:39.281Z,29.20
2022-08-25T19:30:50.347Z,29.20
2022-08-25T19:34:46.768Z,29.10
2022-08-25T19:38:51.892Z,29.20
2022-08-25T19:42:53.792Z,29.10
2022-08-25T19:46:56.067Z,29.00
2022-08-25T19:50:57.326Z,29.00
2022-08-25T19:54:59.320Z,28.90
2022-08-25T19:59:01.560Z,28.80
2022-08-25T20:03:03.546Z,28.70
2022-08-25T20:07:05.046Z,28.60
2022-08-25T20:11:06.357Z,28.20
2022-08-25T20:15:09.438Z,28.10
2022-08-25T20:19:11.187Z,27.90
2022-08-25T20:23:30.806Z,27.80
2022-08-25T20:27:35.768Z,27.70
2022-08-25T20:31:37.970Z,27.50
2022-08-25T20:35:39.924Z,27.40
2022-08-25T20:39:41.994Z,27.30
2022-08-25T20:43:43.571Z,27.10
2022-08-25T20:47:45.517Z,27.00
2022-08-25T20:51:46.859Z,27.10
2022-08-25T20:55:50.289Z,27.20
2022-08-25T20:59:52.913Z,27.20
2022-08-25T21:03:54.614Z,27.20
2022-08-25T21:07:55.989Z,27.00
2022-08-25T21:11:58.404Z,27.00
2022-08-25T21:16:03.629Z,26.90
2022-08-25T21:20:08.328Z,26.90
2022-08-25T21:24:11.243Z,26.80
2022-08-25T21:28:14.215Z,26.90
2022-08-25T21:32:15.921Z,26.90
2022-08-25T21:36:18.919Z,26.80
2022-08-25T21:40:22.280Z,26.70
2022-08-25T21:44:23.710Z,26.70
2022-08-25T21:48:26.930Z,26.50
2022-08-25T21:52:28.237Z,26.50
2022-08-25T21:56:31.314Z,26.40
2022-08-25T22:00:35.003Z,26.40
2022-08-25T22:04:37.889Z,26.50
2022-08-25T22:08:41.864Z,26.50
2022-08-25T22:12:44.941Z,26.10
2022-08-25T22:16:46.250Z,26.30
2022-08-25T22:20:48.627Z,26.30
2022-08-25T22:24:51.232Z,26.30
2022-08-25T22:28:53.375Z,26.20
2022-08-25T22:32:54.974Z,26.00
2022-08-25T22:36:59.838Z,25.80
2022-08-25T22:41:02.382Z,25.90
2022-08-25T22:45:06.356Z,25.90
2022-08-25T22:49:08.394Z,26.10
2022-08-25T22:53:09.831Z,25.90
2022-08-25T22:57:11.542Z,26.00
2022-08-25T23:01:16.141Z,25.80
2022-08-25T23:05:18.605Z,25.60
2022-08-25T23:09:20.397Z,25.50
2022-08-25T23:13:33.955Z,25.40
2022-08-25T23:17:28.770Z,25.30
2022-08-25T23:21:48.550Z,25.30
2022-08-25T23:25:51.209Z,25.30
2022-08-25T23:29:52.516Z,25.20
2022-08-25T23:33:54.377Z,25.20
2022-08-25T23:37:55.778Z,25.20
2022-08-25T23:41:58.281Z,25.20
2022-08-25T23:46:02.347Z,25.20
2022-08-25T23:50:04.325Z,25.20
2022-08-25T23:54:10.823Z,25.20
2022-08-25T23:58:12.336Z,25.20
